sensor_id;sensor_type;location;lat;lon;timestamp;P1;durP1;ratioP1;P2;durP2;ratioP2
19312;SDS011;9791;50.820;4.406;2023-02-28T00:00:03;14.07;;;4.87;;
19312;SDS011;9791;50.820;4.406;2023-02-28T00:02:41;9.00;;;4.57;;
19312;SDS011;9791;50.820;4.406;2023-02-28T00:05:08;9.73;;;4.60;;
19312;SDS011;9791;50.820;4.406;2023-02-28T00:07:35;10.13;;;4.63;;
19312;SDS011;9791;50.820;4.406;2023-02-28T00:10:01;8.87;;;4.83;;
19312;SDS011;9791;50.820;4.406;2023-02-28T00:12:27;8.83;;;4.93;;
19312;SDS011;9791;50.820;4.406;2023-02-28T00:14:53;9.10;;;4.93;;
19312;SDS011;9791;50.820;4.406;2023-02-28T00:17:19;8.07;;;4.70;;
19312;SDS011;9791;50.820;4.406;2023-02-28T00:19:49;8.90;;;5.10;;
19312;SDS011;9791;50.820;4.406;2023-02-28T00:22:19;10.27;;;5.17;;
19312;SDS011;9791;50.820;4.406;2023-02-28T00:24:45;10.13;;;4.77;;
19312;SDS011;9791;50.820;4.406;2023-02-28T00:27:11;8.80;;;3.93;;
19312;SDS011;9791;50.820;4.406;2023-02-28T00:29:37;9.97;;;4.47;;
19312;SDS011;9791;50.820;4.406;2023-02-28T00:32:04;11.63;;;4.90;;
19312;SDS011;9791;50.820;4.406;2023-02-28T00:34:30;11.23;;;4.33;;
19312;SDS011;9791;50.820;4.406;2023-02-28T00:36:57;7.40;;;4.67;;
19312;SDS011;9791;50.820;4.406;2023-02-28T00:39:23;7.33;;;4.00;;
19312;SDS011;9791;50.820;4.406;2023-02-28T00:41:49;8.13;;;4.53;;
19312;SDS011;9791;50.820;4.406;2023-02-28T00:44:15;7.60;;;4.17;;
19312;SDS011;9791;50.820;4.406;2023-02-28T00:46:44;8.70;;;4.70;;
19312;SDS011;9791;50.820;4.406;2023-02-28T00:49:10;8.10;;;5.00;;
19312;SDS011;9791;50.820;4.406;2023-02-28T00:51:36;11.23;;;4.73;;
19312;SDS011;9791;50.820;4.406;2023-02-28T00:54:02;10.40;;;5.40;;
19312;SDS011;9791;50.820;4.406;2023-02-28T00:56:28;11.33;;;4.83;;
19312;SDS011;9791;50.820;4.406;2023-02-28T00:58:54;9.07;;;4.60;;
19312;SDS011;9791;50.820;4.406;2023-02-28T01:01:20;9.30;;;4.50;;
19312;SDS011;9791;50.820;4.406;2023-02-28T01:03:46;12.07;;;4.90;;
19312;SDS011;9791;50.820;4.406;2023-02-28T01:06:12;9.73;;;4.97;;
19312;SDS011;9791;50.820;4.406;2023-02-28T01:08:38;9.43;;;4.60;;
19312;SDS011;9791;50.820;4.406;2023-02-28T01:11:11;9.47;;;5.03;;
19312;SDS011;9791;50.820;4.406;2023-02-28T01:13:37;9.20;;;4.97;;
19312;SDS011;9791;50.820;4.406;2023-02-28T01:16:03;9.73;;;5.00;;
19312;SDS011;9791;50.820;4.406;2023-02-28T01:18:29;7.70;;;4.40;;
19312;SDS011;9791;50.820;4.406;2023-02-28T01:20:57;12.30;;;5.37;;
19312;SDS011;9791;50.820;4.406;2023-02-28T01:23:23;7.00;;;4.80;;
19312;SDS011;9791;50.820;4.406;2023-02-28T01:25:50;8.80;;;4.87;;
19312;SDS011;9791;50.820;4.406;2023-02-28T01:28:16;7.17;;;4.67;;
19312;SDS011;9791;50.820;4.406;2023-02-28T01:30:42;10.73;;;5.17;;
19312;SDS011;9791;50.820;4.406;2023-02-28T01:33:08;8.30;;;5.27;;
19312;SDS011;9791;50.820;4.406;2023-02-28T01:35:35;10.13;;;4.67;;
19312;SDS011;9791;50.820;4.406;2023-02-28T01:38:02;11.70;;;5.87;;
19312;SDS011;9791;50.820;4.406;2023-02-28T01:40:28;13.37;;;5.67;;
19312;SDS011;9791;50.820;4.406;2023-02-28T01:42:54;11.97;;;5.67;;
19312;SDS011;9791;50.820;4.406;2023-02-28T01:45:22;13.50;;;5.20;;
19312;SDS011;9791;50.820;4.406;2023-02-28T01:47:50;11.97;;;5.50;;
19312;SDS011;9791;50.820;4.406;2023-02-28T01:50:22;11.43;;;5.53;;
19312;SDS011;9791;50.820;4.406;2023-02-28T01:52:48;9.17;;;4.40;;
19312;SDS011;9791;50.820;4.406;2023-02-28T01:55:15;9.27;;;5.00;;
19312;SDS011;9791;50.820;4.406;2023-02-28T01:57:46;11.03;;;5.23;;
19312;SDS011;9791;50.820;4.406;2023-02-28T02:00:14;8.67;;;5.17;;
19312;SDS011;9791;50.820;4.406;2023-02-28T02:02:45;10.53;;;5.10;;
19312;SDS011;9791;50.820;4.406;2023-02-28T02:05:12;10.73;;;5.10;;
19312;SDS011;9791;50.820;4.406;2023-02-28T02:07:40;9.80;;;5.30;;
19312;SDS011;9791;50.820;4.406;2023-02-28T02:15:23;7.13;;;5.00;;
19312;SDS011;9791;50.820;4.406;2023-02-28T02:17:51;7.23;;;5.03;;
19312;SDS011;9791;50.820;4.406;2023-02-28T02:35:52;11.10;;;5.73;;
19312;SDS011;9791;50.820;4.406;2023-02-28T02:43:44;15.30;;;5.77;;
19312;SDS011;9791;50.820;4.406;2023-02-28T02:46:13;9.30;;;5.53;;
19312;SDS011;9791;50.820;4.406;2023-02-28T02:48:41;12.00;;;6.47;;
19312;SDS011;9791;50.820;4.406;2023-02-28T02:51:10;10.77;;;6.27;;
19312;SDS011;9791;50.820;4.406;2023-02-28T02:53:40;8.43;;;6.03;;
19312;SDS011;9791;50.820;4.406;2023-02-28T02:56:07;8.40;;;5.83;;
19312;SDS011;9791;50.820;4.406;2023-02-28T02:58:36;12.53;;;6.40;;
19312;SDS011;9791;50.820;4.406;2023-02-28T03:01:07;9.67;;;6.40;;
19312;SDS011;9791;50.820;4.406;2023-02-28T03:03:34;10.37;;;6.53;;
19312;SDS011;9791;50.820;4.406;2023-02-28T03:06:01;10.47;;;6.53;;
19312;SDS011;9791;50.820;4.406;2023-02-28T03:08:28;13.53;;;5.77;;
19312;SDS011;9791;50.820;4.406;2023-02-28T03:11:02;9.87;;;6.33;;
19312;SDS011;9791;50.820;4.406;2023-02-28T03:21:02;9.67;;;6.37;;
19312;SDS011;9791;50.820;4.406;2023-02-28T03:23:42;12.50;;;6.43;;
19312;SDS011;9791;50.820;4.406;2023-02-28T03:26:17;13.63;;;7.53;;
19312;SDS011;9791;50.820;4.406;2023-02-28T03:36:20;13.73;;;7.27;;
19312;SDS011;9791;50.820;4.406;2023-02-28T03:41:21;14.30;;;7.10;;
19312;SDS011;9791;50.820;4.406;2023-02-28T03:43:49;12.67;;;6.77;;
19312;SDS011;9791;50.820;4.406;2023-02-28T03:46:17;14.83;;;7.30;;
19312;SDS011;9791;50.820;4.406;2023-02-28T03:48:51;11.60;;;7.17;;
19312;SDS011;9791;50.820;4.406;2023-02-28T03:51:18;13.17;;;7.73;;
19312;SDS011;9791;50.820;4.406;2023-02-28T03:53:47;12.83;;;7.27;;
19312;SDS011;9791;50.820;4.406;2023-02-28T03:56:21;13.20;;;7.80;;
19312;SDS011;9791;50.820;4.406;2023-02-28T04:01:25;11.67;;;7.03;;
19312;SDS011;9791;50.820;4.406;2023-02-28T04:03:53;11.00;;;7.00;;
19312;SDS011;9791;50.820;4.406;2023-02-28T04:06:20;12.17;;;7.27;;
19312;SDS011;9791;50.820;4.406;2023-02-28T04:08:47;12.17;;;7.20;;
19312;SDS011;9791;50.820;4.406;2023-02-28T04:13:58;13.77;;;6.87;;
19312;SDS011;9791;50.820;4.406;2023-02-28T04:16:24;11.67;;;7.53;;
19312;SDS011;9791;50.820;4.406;2023-02-28T04:18:50;14.87;;;7.30;;
19312;SDS011;9791;50.820;4.406;2023-02-28T04:21:16;12.87;;;7.87;;
19312;SDS011;9791;50.820;4.406;2023-02-28T04:23:45;12.47;;;7.20;;
19312;SDS011;9791;50.820;4.406;2023-02-28T04:26:11;15.23;;;7.93;;
19312;SDS011;9791;50.820;4.406;2023-02-28T04:28:37;13.53;;;8.17;;
19312;SDS011;9791;50.820;4.406;2023-02-28T04:31:04;12.50;;;8.07;;
19312;SDS011;9791;50.820;4.406;2023-02-28T04:33:30;13.70;;;7.77;;
19312;SDS011;9791;50.820;4.406;2023-02-28T04:38:26;15.10;;;7.70;;
19312;SDS011;9791;50.820;4.406;2023-02-28T04:40:52;17.23;;;8.80;;
19312;SDS011;9791;50.820;4.406;2023-02-28T04:43:18;12.17;;;8.10;;
19312;SDS011;9791;50.820;4.406;2023-02-28T04:45:44;12.87;;;7.80;;
19312;SDS011;9791;50.820;4.406;2023-02-28T04:48:10;11.03;;;7.80;;
19312;SDS011;9791;50.820;4.406;2023-02-28T04:50:36;17.63;;;8.10;;
19312;SDS011;9791;50.820;4.406;2023-02-28T04:53:02;12.97;;;7.53;;
19312;SDS011;9791;50.820;4.406;2023-02-28T04:55:28;14.73;;;8.37;;
19312;SDS011;9791;50.820;4.406;2023-02-28T04:57:54;12.40;;;7.97;;
19312;SDS011;9791;50.820;4.406;2023-02-28T05:00:20;11.37;;;7.63;;
19312;SDS011;9791;50.820;4.406;2023-02-28T05:02:46;12.13;;;8.07;;
19312;SDS011;9791;50.820;4.406;2023-02-28T05:05:12;12.63;;;8.23;;
19312;SDS011;9791;50.820;4.406;2023-02-28T05:07:43;12.93;;;8.23;;
19312;SDS011;9791;50.820;4.406;2023-02-28T05:10:09;15.83;;;9.17;;
19312;SDS011;9791;50.820;4.406;2023-02-28T05:12:36;16.43;;;8.63;;
19312;SDS011;9791;50.820;4.406;2023-02-28T05:15:02;16.50;;;8.40;;
19312;SDS011;9791;50.820;4.406;2023-02-28T05:17:29;16.97;;;8.57;;
19312;SDS011;9791;50.820;4.406;2023-02-28T05:19:56;14.83;;;8.20;;
19312;SDS011;9791;50.820;4.406;2023-02-28T05:22:22;15.13;;;8.70;;
19312;SDS011;9791;50.820;4.406;2023-02-28T05:24:48;15.67;;;8.17;;
19312;SDS011;9791;50.820;4.406;2023-02-28T05:27:14;11.47;;;7.63;;
19312;SDS011;9791;50.820;4.406;2023-02-28T05:29:42;11.50;;;7.70;;
19312;SDS011;9791;50.820;4.406;2023-02-28T05:32:10;13.13;;;8.40;;
19312;SDS011;9791;50.820;4.406;2023-02-28T05:34:40;14.50;;;8.23;;
19312;SDS011;9791;50.820;4.406;2023-02-28T05:37:10;17.33;;;9.10;;
19312;SDS011;9791;50.820;4.406;2023-02-28T05:39:37;14.23;;;8.20;;
19312;SDS011;9791;50.820;4.406;2023-02-28T05:42:03;12.57;;;7.77;;
19312;SDS011;9791;50.820;4.406;2023-02-28T05:44:29;13.07;;;7.90;;
19312;SDS011;9791;50.820;4.406;2023-02-28T05:46:56;12.60;;;7.20;;
19312;SDS011;9791;50.820;4.406;2023-02-28T05:49:22;13.30;;;8.10;;
19312;SDS011;9791;50.820;4.406;2023-02-28T05:51:48;13.93;;;7.83;;
19312;SDS011;9791;50.820;4.406;2023-02-28T05:54:14;15.60;;;8.20;;
19312;SDS011;9791;50.820;4.406;2023-02-28T05:56:40;14.73;;;7.70;;
19312;SDS011;9791;50.820;4.406;2023-02-28T05:59:09;13.77;;;8.13;;
19312;SDS011;9791;50.820;4.406;2023-02-28T06:01:37;11.97;;;7.10;;
19312;SDS011;9791;50.820;4.406;2023-02-28T06:04:04;14.93;;;7.63;;
19312;SDS011;9791;50.820;4.406;2023-02-28T06:06:30;12.73;;;7.47;;
19312;SDS011;9791;50.820;4.406;2023-02-28T06:08:56;11.83;;;7.60;;
19312;SDS011;9791;50.820;4.406;2023-02-28T06:11:23;15.00;;;8.13;;
19312;SDS011;9791;50.820;4.406;2023-02-28T06:13:59;13.60;;;7.20;;
19312;SDS011;9791;50.820;4.406;2023-02-28T06:16:26;10.87;;;7.30;;
19312;SDS011;9791;50.820;4.406;2023-02-28T06:18:52;13.73;;;7.03;;
19312;SDS011;9791;50.820;4.406;2023-02-28T06:21:21;11.13;;;7.47;;
19312;SDS011;9791;50.820;4.406;2023-02-28T06:23:47;14.43;;;7.03;;
19312;SDS011;9791;50.820;4.406;2023-02-28T06:26:13;12.50;;;7.43;;
19312;SDS011;9791;50.820;4.406;2023-02-28T06:28:39;11.83;;;7.37;;
19312;SDS011;9791;50.820;4.406;2023-02-28T06:31:08;14.73;;;7.23;;
19312;SDS011;9791;50.820;4.406;2023-02-28T06:33:36;10.70;;;7.23;;
19312;SDS011;9791;50.820;4.406;2023-02-28T06:36:02;11.53;;;7.47;;
19312;SDS011;9791;50.820;4.406;2023-02-28T06:38:28;14.53;;;8.13;;
19312;SDS011;9791;50.820;4.406;2023-02-28T06:40:55;13.07;;;7.20;;
19312;SDS011;9791;50.820;4.406;2023-02-28T06:43:22;11.70;;;7.60;;
19312;SDS011;9791;50.820;4.406;2023-02-28T06:45:48;12.17;;;7.33;;
19312;SDS011;9791;50.820;4.406;2023-02-28T06:48:14;11.43;;;7.27;;
19312;SDS011;9791;50.820;4.406;2023-02-28T06:50:40;10.30;;;6.80;;
19312;SDS011;9791;50.820;4.406;2023-02-28T06:53:06;16.43;;;7.57;;
19312;SDS011;9791;50.820;4.406;2023-02-28T06:55:32;12.33;;;7.07;;
19312;SDS011;9791;50.820;4.406;2023-02-28T06:57:58;14.50;;;7.70;;
19312;SDS011;9791;50.820;4.406;2023-02-28T07:00:24;12.37;;;7.27;;
19312;SDS011;9791;50.820;4.406;2023-02-28T07:02:52;12.83;;;7.50;;
19312;SDS011;9791;50.820;4.406;2023-02-28T07:05:20;12.20;;;7.67;;
19312;SDS011;9791;50.820;4.406;2023-02-28T07:07:46;9.77;;;6.57;;
19312;SDS011;9791;50.820;4.406;2023-02-28T07:10:12;10.93;;;7.07;;
19312;SDS011;9791;50.820;4.406;2023-02-28T07:12:41;9.93;;;6.43;;
19312;SDS011;9791;50.820;4.406;2023-02-28T07:15:08;10.23;;;6.70;;
19312;SDS011;9791;50.820;4.406;2023-02-28T07:17:34;14.57;;;6.27;;
19312;SDS011;9791;50.820;4.406;2023-02-28T07:20:00;9.60;;;6.67;;
19312;SDS011;9791;50.820;4.406;2023-02-28T07:22:29;12.35;;;6.30;;
19312;SDS011;9791;50.820;4.406;2023-02-28T07:24:55;10.48;;;5.22;;
19312;SDS011;9791;50.820;4.406;2023-02-28T07:27:21;11.55;;;5.32;;
19312;SDS011;9791;50.820;4.406;2023-02-28T07:29:51;10.75;;;6.00;;
19312;SDS011;9791;50.820;4.406;2023-02-28T07:32:17;10.20;;;6.25;;
19312;SDS011;9791;50.820;4.406;2023-02-28T07:34:44;9.52;;;5.72;;
19312;SDS011;9791;50.820;4.406;2023-02-28T07:37:10;10.50;;;5.00;;
19312;SDS011;9791;50.820;4.406;2023-02-28T07:39:36;10.68;;;5.07;;
19312;SDS011;9791;50.820;4.406;2023-02-28T07:42:08;9.52;;;5.15;;
19312;SDS011;9791;50.820;4.406;2023-02-28T07:44:36;10.73;;;4.75;;
19312;SDS011;9791;50.820;4.406;2023-02-28T07:47:06;9.73;;;4.55;;
19312;SDS011;9791;50.820;4.406;2023-02-28T07:49:32;8.13;;;5.00;;
19312;SDS011;9791;50.820;4.406;2023-02-28T07:51:58;10.57;;;4.85;;
19312;SDS011;9791;50.820;4.406;2023-02-28T07:54:24;10.70;;;4.72;;
19312;SDS011;9791;50.820;4.406;2023-02-28T07:56:50;10.02;;;4.50;;
19312;SDS011;9791;50.820;4.406;2023-02-28T07:59:16;7.75;;;4.45;;
19312;SDS011;9791;50.820;4.406;2023-02-28T08:01:42;12.27;;;4.82;;
19312;SDS011;9791;50.820;4.406;2023-02-28T08:04:09;7.85;;;4.45;;
19312;SDS011;9791;50.820;4.406;2023-02-28T08:06:35;7.55;;;4.07;;
19312;SDS011;9791;50.820;4.406;2023-02-28T08:09:01;8.57;;;4.13;;
19312;SDS011;9791;50.820;4.406;2023-02-28T08:11:27;8.73;;;3.67;;
19312;SDS011;9791;50.820;4.406;2023-02-28T08:13:54;7.07;;;3.88;;
19312;SDS011;9791;50.820;4.406;2023-02-28T08:16:20;9.57;;;4.10;;
19312;SDS011;9791;50.820;4.406;2023-02-28T08:18:50;10.93;;;4.10;;
19312;SDS011;9791;50.820;4.406;2023-02-28T08:21:16;7.57;;;4.20;;
19312;SDS011;9791;50.820;4.406;2023-02-28T08:23:42;7.95;;;4.10;;
19312;SDS011;9791;50.820;4.406;2023-02-28T08:26:08;7.13;;;3.55;;
19312;SDS011;9791;50.820;4.406;2023-02-28T08:28:35;7.80;;;3.63;;
19312;SDS011;9791;50.820;4.406;2023-02-28T08:31:01;8.50;;;3.60;;
19312;SDS011;9791;50.820;4.406;2023-02-28T08:33:32;7.30;;;3.75;;
19312;SDS011;9791;50.820;4.406;2023-02-28T08:35:58;12.07;;;3.15;;
19312;SDS011;9791;50.820;4.406;2023-02-28T08:38:24;9.52;;;3.47;;
19312;SDS011;9791;50.820;4.406;2023-02-28T08:40:56;6.60;;;3.15;;
19312;SDS011;9791;50.820;4.406;2023-02-28T08:43:22;7.88;;;3.00;;
19312;SDS011;9791;50.820;4.406;2023-02-28T08:45:50;5.65;;;3.22;;
19312;SDS011;9791;50.820;4.406;2023-02-28T08:48:16;7.40;;;3.30;;
19312;SDS011;9791;50.820;4.406;2023-02-28T08:50:42;6.38;;;3.67;;
19312;SDS011;9791;50.820;4.406;2023-02-28T08:53:08;6.60;;;3.30;;
19312;SDS011;9791;50.820;4.406;2023-02-28T08:55:35;6.22;;;3.17;;
19312;SDS011;9791;50.820;4.406;2023-02-28T08:58:04;7.95;;;3.42;;
19312;SDS011;9791;50.820;4.406;2023-02-28T09:00:30;7.20;;;3.88;;
19312;SDS011;9791;50.820;4.406;2023-02-28T09:02:56;9.05;;;3.72;;
19312;SDS011;9791;50.820;4.406;2023-02-28T09:05:22;5.10;;;3.40;;
19312;SDS011;9791;50.820;4.406;2023-02-28T09:07:49;6.20;;;3.08;;
19312;SDS011;9791;50.820;4.406;2023-02-28T09:10:15;6.07;;;3.30;;
19312;SDS011;9791;50.820;4.406;2023-02-28T09:12:41;6.90;;;3.25;;
19312;SDS011;9791;50.820;4.406;2023-02-28T09:15:07;5.50;;;2.85;;
19312;SDS011;9791;50.820;4.406;2023-02-28T09:17:33;7.55;;;2.50;;
19312;SDS011;9791;50.820;4.406;2023-02-28T09:19:59;4.53;;;2.30;;
19312;SDS011;9791;50.820;4.406;2023-02-28T09:22:26;5.35;;;2.65;;
19312;SDS011;9791;50.820;4.406;2023-02-28T09:24:53;7.82;;;2.92;;
19312;SDS011;9791;50.820;4.406;2023-02-28T09:27:19;8.88;;;2.70;;
19312;SDS011;9791;50.820;4.406;2023-02-28T09:29:45;4.50;;;2.28;;
19312;SDS011;9791;50.820;4.406;2023-02-28T09:32:11;5.45;;;2.42;;
19312;SDS011;9791;50.820;4.406;2023-02-28T09:34:37;7.05;;;2.63;;
19312;SDS011;9791;50.820;4.406;2023-02-28T09:37:03;6.03;;;2.50;;
19312;SDS011;9791;50.820;4.406;2023-02-28T09:39:29;7.07;;;2.72;;
19312;SDS011;9791;50.820;4.406;2023-02-28T09:41:56;7.15;;;2.88;;
19312;SDS011;9791;50.820;4.406;2023-02-28T09:46:49;4.78;;;2.03;;
19312;SDS011;9791;50.820;4.406;2023-02-28T09:49:25;5.13;;;2.10;;
19312;SDS011;9791;50.820;4.406;2023-02-28T09:52:01;5.10;;;2.05;;
19312;SDS011;9791;50.820;4.406;2023-02-28T09:54:29;3.25;;;1.58;;
19312;SDS011;9791;50.820;4.406;2023-02-28T09:56:58;4.93;;;1.70;;
19312;SDS011;9791;50.820;4.406;2023-02-28T10:02:29;4.97;;;1.65;;
19312;SDS011;9791;50.820;4.406;2023-02-28T10:05:59;5.28;;;1.83;;
19312;SDS011;9791;50.820;4.406;2023-02-28T10:07:57;4.35;;;2.25;;
19312;SDS011;9791;50.820;4.406;2023-02-28T10:10:45;2.95;;;1.50;;
19312;SDS011;9791;50.820;4.406;2023-02-28T10:13:23;3.70;;;1.73;;
19312;SDS011;9791;50.820;4.406;2023-02-28T10:15:55;3.90;;;1.73;;
19312;SDS011;9791;50.820;4.406;2023-02-28T10:18:24;4.10;;;1.90;;
19312;SDS011;9791;50.820;4.406;2023-02-28T10:20:50;3.15;;;1.67;;
19312;SDS011;9791;50.820;4.406;2023-02-28T10:23:26;5.05;;;1.58;;
19312;SDS011;9791;50.820;4.406;2023-02-28T10:25:55;3.72;;;1.83;;
19312;SDS011;9791;50.820;4.406;2023-02-28T10:28:24;5.28;;;1.70;;
19312;SDS011;9791;50.820;4.406;2023-02-28T10:30:53;4.57;;;1.75;;
19312;SDS011;9791;50.820;4.406;2023-02-28T10:33:24;3.75;;;1.73;;
19312;SDS011;9791;50.820;4.406;2023-02-28T10:35:51;3.05;;;1.33;;
19312;SDS011;9791;50.820;4.406;2023-02-28T10:38:26;3.75;;;1.60;;
19312;SDS011;9791;50.820;4.406;2023-02-28T10:41:04;4.68;;;1.35;;
19312;SDS011;9791;50.820;4.406;2023-02-28T10:43:30;3.22;;;1.30;;
19312;SDS011;9791;50.820;4.406;2023-02-28T10:45:58;3.38;;;1.40;;
19312;SDS011;9791;50.820;4.406;2023-02-28T10:48:29;4.25;;;1.33;;
19312;SDS011;9791;50.820;4.406;2023-02-28T10:50:56;2.97;;;1.40;;
19312;SDS011;9791;50.820;4.406;2023-02-28T11:03:51;3.53;;;1.63;;
19312;SDS011;9791;50.820;4.406;2023-02-28T11:06:21;3.05;;;1.50;;
19312;SDS011;9791;50.820;4.406;2023-02-28T11:11:14;4.28;;;1.77;;
19312;SDS011;9791;50.820;4.406;2023-02-28T11:13:41;6.38;;;1.98;;
19312;SDS011;9791;50.820;4.406;2023-02-28T11:16:09;4.13;;;1.65;;
19312;SDS011;9791;50.820;4.406;2023-02-28T11:18:49;5.15;;;1.70;;
19312;SDS011;9791;50.820;4.406;2023-02-28T11:21:17;5.50;;;1.80;;
19312;SDS011;9791;50.820;4.406;2023-02-28T11:23:44;2.97;;;1.48;;
19312;SDS011;9791;50.820;4.406;2023-02-28T11:26:10;4.80;;;1.70;;
19312;SDS011;9791;50.820;4.406;2023-02-28T11:28:38;3.88;;;1.65;;
19312;SDS011;9791;50.820;4.406;2023-02-28T11:31:06;3.40;;;1.60;;
19312;SDS011;9791;50.820;4.406;2023-02-28T11:38:39;4.65;;;1.83;;
19312;SDS011;9791;50.820;4.406;2023-02-28T11:43:53;4.63;;;1.90;;
19312;SDS011;9791;50.820;4.406;2023-02-28T11:46:31;3.38;;;1.60;;
19312;SDS011;9791;50.820;4.406;2023-02-28T11:51:34;5.30;;;2.10;;
19312;SDS011;9791;50.820;4.406;2023-02-28T11:56:39;3.85;;;2.05;;
19312;SDS011;9791;50.820;4.406;2023-02-28T12:22:21;4.07;;;1.85;;
19312;SDS011;9791;50.820;4.406;2023-02-28T12:24:54;4.53;;;1.80;;
19312;SDS011;9791;50.820;4.406;2023-02-28T12:27:25;3.83;;;1.90;;
19312;SDS011;9791;50.820;4.406;2023-02-28T12:30:03;3.13;;;1.52;;
19312;SDS011;9791;50.820;4.406;2023-02-28T12:32:33;4.10;;;1.70;;
19312;SDS011;9791;50.820;4.406;2023-02-28T12:35:02;5.70;;;1.90;;
19312;SDS011;9791;50.820;4.406;2023-02-28T12:37:33;4.60;;;2.20;;
19312;SDS011;9791;50.820;4.406;2023-02-28T12:40:04;5.60;;;2.35;;
19312;SDS011;9791;50.820;4.406;2023-02-28T12:42:36;4.22;;;1.83;;
19312;SDS011;9791;50.820;4.406;2023-02-28T12:45:12;3.15;;;1.75;;
19312;SDS011;9791;50.820;4.406;2023-02-28T12:47:41;5.70;;;2.17;;
19312;SDS011;9791;50.820;4.406;2023-02-28T12:50:09;3.63;;;1.92;;
19312;SDS011;9791;50.820;4.406;2023-02-28T12:58:06;6.90;;;2.20;;
19312;SDS011;9791;50.820;4.406;2023-02-28T13:00:35;4.25;;;2.47;;
19312;SDS011;9791;50.820;4.406;2023-02-28T13:10:53;4.05;;;2.50;;
19312;SDS011;9791;50.820;4.406;2023-02-28T13:13:21;3.75;;;2.20;;
19312;SDS011;9791;50.820;4.406;2023-02-28T13:18:29;6.10;;;2.40;;
19312;SDS011;9791;50.820;4.406;2023-02-28T13:20:55;6.22;;;2.70;;
19312;SDS011;9791;50.820;4.406;2023-02-28T13:23:36;4.93;;;2.30;;
19312;SDS011;9791;50.820;4.406;2023-02-28T13:26:02;4.70;;;2.75;;
19312;SDS011;9791;50.820;4.406;2023-02-28T13:31:14;4.57;;;2.30;;
19312;SDS011;9791;50.820;4.406;2023-02-28T13:38:41;5.10;;;2.42;;
19312;SDS011;9791;50.820;4.406;2023-02-28T13:46:36;4.88;;;2.28;;
19312;SDS011;9791;50.820;4.406;2023-02-28T13:51:50;5.30;;;2.45;;
19312;SDS011;9791;50.820;4.406;2023-02-28T13:56:45;4.72;;;2.53;;
19312;SDS011;9791;50.820;4.406;2023-02-28T13:59:19;6.57;;;2.88;;
19312;SDS011;9791;50.820;4.406;2023-02-28T14:05:02;4.65;;;2.60;;
19312;SDS011;9791;50.820;4.406;2023-02-28T14:07:32;7.43;;;2.70;;
19312;SDS011;9791;50.820;4.406;2023-02-28T14:10:01;6.15;;;2.38;;
19312;SDS011;9791;50.820;4.406;2023-02-28T14:18:02;7.72;;;2.42;;
19312;SDS011;9791;50.820;4.406;2023-02-28T14:20:29;5.93;;;2.90;;
19312;SDS011;9791;50.820;4.406;2023-02-28T14:23:01;4.45;;;2.13;;
19312;SDS011;9791;50.820;4.406;2023-02-28T14:28:36;3.83;;;2.15;;
19312;SDS011;9791;50.820;4.406;2023-02-28T14:33:37;5.60;;;2.65;;
19312;SDS011;9791;50.820;4.406;2023-02-28T14:38:51;4.32;;;2.53;;
19312;SDS011;9791;50.820;4.406;2023-02-28T14:41:37;4.18;;;2.53;;
19312;SDS011;9791;50.820;4.406;2023-02-28T14:46:39;5.85;;;2.95;;
19312;SDS011;9791;50.820;4.406;2023-02-28T14:49:06;4.93;;;2.83;;
19312;SDS011;9791;50.820;4.406;2023-02-28T14:51:33;5.82;;;2.78;;
19312;SDS011;9791;50.820;4.406;2023-02-28T14:54:00;5.72;;;2.75;;
19312;SDS011;9791;50.820;4.406;2023-02-28T14:56:36;6.15;;;2.60;;
19312;SDS011;9791;50.820;4.406;2023-02-28T14:59:03;6.03;;;2.88;;
19312;SDS011;9791;50.820;4.406;2023-02-28T15:01:29;5.50;;;2.88;;
19312;SDS011;9791;50.820;4.406;2023-02-28T15:04:02;5.47;;;3.03;;
19312;SDS011;9791;50.820;4.406;2023-02-28T15:06:29;4.20;;;2.88;;
19312;SDS011;9791;50.820;4.406;2023-02-28T15:09:15;6.00;;;2.80;;
19312;SDS011;9791;50.820;4.406;2023-02-28T15:11:42;8.77;;;2.85;;
19312;SDS011;9791;50.820;4.406;2023-02-28T15:14:14;4.97;;;2.80;;
19312;SDS011;9791;50.820;4.406;2023-02-28T15:16:41;6.10;;;2.80;;
19312;SDS011;9791;50.820;4.406;2023-02-28T15:19:20;5.22;;;2.63;;
19312;SDS011;9791;50.820;4.406;2023-02-28T15:22:11;6.38;;;3.30;;
19312;SDS011;9791;50.820;4.406;2023-02-28T15:24:40;9.10;;;3.00;;
19312;SDS011;9791;50.820;4.406;2023-02-28T15:29:44;13.02;;;3.42;;
19312;SDS011;9791;50.820;4.406;2023-02-28T15:32:31;5.63;;;3.03;;
19312;SDS011;9791;50.820;4.406;2023-02-28T15:34:58;5.88;;;2.80;;
19312;SDS011;9791;50.820;4.406;2023-02-28T15:37:45;4.63;;;2.47;;
19312;SDS011;9791;50.820;4.406;2023-02-28T15:40:17;5.30;;;2.80;;
19312;SDS011;9791;50.820;4.406;2023-02-28T15:45:45;5.72;;;2.85;;
19312;SDS011;9791;50.820;4.406;2023-02-28T15:50:40;4.45;;;2.45;;
19312;SDS011;9791;50.820;4.406;2023-02-28T15:53:12;5.25;;;2.72;;
19312;SDS011;9791;50.820;4.406;2023-02-28T15:55:39;4.60;;;2.50;;
19312;SDS011;9791;50.820;4.406;2023-02-28T15:58:07;5.38;;;2.85;;
19312;SDS011;9791;50.820;4.406;2023-02-28T16:00:34;3.72;;;2.28;;
19312;SDS011;9791;50.820;4.406;2023-02-28T16:03:00;4.03;;;2.33;;
19312;SDS011;9791;50.820;4.406;2023-02-28T16:05:28;7.00;;;3.00;;
19312;SDS011;9791;50.820;4.406;2023-02-28T16:08:00;5.30;;;3.00;;
19312;SDS011;9791;50.820;4.406;2023-02-28T16:10:27;4.53;;;2.63;;
19312;SDS011;9791;50.820;4.406;2023-02-28T16:12:54;5.35;;;2.72;;
19312;SDS011;9791;50.820;4.406;2023-02-28T16:17:47;5.45;;;2.78;;
19312;SDS011;9791;50.820;4.406;2023-02-28T16:20:20;6.63;;;3.22;;
19312;SDS011;9791;50.820;4.406;2023-02-28T16:22:47;6.13;;;2.70;;
19312;SDS011;9791;50.820;4.406;2023-02-28T16:25:14;5.40;;;2.88;;
19312;SDS011;9791;50.820;4.406;2023-02-28T16:27:40;7.38;;;3.38;;
19312;SDS011;9791;50.820;4.406;2023-02-28T16:30:06;4.95;;;2.67;;
19312;SDS011;9791;50.820;4.406;2023-02-28T16:32:36;6.00;;;3.00;;
19312;SDS011;9791;50.820;4.406;2023-02-28T16:35:02;4.50;;;2.53;;
19312;SDS011;9791;50.820;4.406;2023-02-28T16:37:28;4.72;;;2.80;;
19312;SDS011;9791;50.820;4.406;2023-02-28T16:39:54;6.68;;;2.95;;
19312;SDS011;9791;50.820;4.406;2023-02-28T16:42:21;5.80;;;3.00;;
19312;SDS011;9791;50.820;4.406;2023-02-28T16:44:48;4.88;;;2.80;;
19312;SDS011;9791;50.820;4.406;2023-02-28T16:47:14;10.00;;;2.75;;
19312;SDS011;9791;50.820;4.406;2023-02-28T16:49:40;5.65;;;2.90;;
19312;SDS011;9791;50.820;4.406;2023-02-28T16:52:08;6.88;;;3.50;;
19312;SDS011;9791;50.820;4.406;2023-02-28T16:54:34;5.68;;;3.13;;
19312;SDS011;9791;50.820;4.406;2023-02-28T16:57:00;8.13;;;2.97;;
19312;SDS011;9791;50.820;4.406;2023-02-28T16:59:27;7.20;;;3.13;;
19312;SDS011;9791;50.820;4.406;2023-02-28T17:01:54;6.53;;;3.80;;
19312;SDS011;9791;50.820;4.406;2023-02-28T17:04:22;7.33;;;3.93;;
19312;SDS011;9791;50.820;4.406;2023-02-28T17:06:48;6.88;;;3.20;;
19312;SDS011;9791;50.820;4.406;2023-02-28T17:09:19;6.57;;;3.47;;
19312;SDS011;9791;50.820;4.406;2023-02-28T17:11:46;10.33;;;4.33;;
19312;SDS011;9791;50.820;4.406;2023-02-28T17:14:12;6.78;;;3.50;;
19312;SDS011;9791;50.820;4.406;2023-02-28T17:16:39;6.80;;;3.17;;
19312;SDS011;9791;50.820;4.406;2023-02-28T17:19:09;6.38;;;3.15;;
19312;SDS011;9791;50.820;4.406;2023-02-28T17:21:36;9.17;;;4.27;;
19312;SDS011;9791;50.820;4.406;2023-02-28T17:24:02;14.30;;;3.77;;
19312;SDS011;9791;50.820;4.406;2023-02-28T17:26:28;8.03;;;4.03;;
19312;SDS011;9791;50.820;4.406;2023-02-28T17:28:55;6.37;;;3.67;;
19312;SDS011;9791;50.820;4.406;2023-02-28T17:31:22;6.00;;;3.20;;
19312;SDS011;9791;50.820;4.406;2023-02-28T17:33:49;8.23;;;3.43;;
19312;SDS011;9791;50.820;4.406;2023-02-28T17:36:16;6.73;;;3.00;;
19312;SDS011;9791;50.820;4.406;2023-02-28T17:38:43;8.67;;;3.93;;
19312;SDS011;9791;50.820;4.406;2023-02-28T17:41:10;6.27;;;3.60;;
19312;SDS011;9791;50.820;4.406;2023-02-28T17:43:36;7.93;;;3.80;;
19312;SDS011;9791;50.820;4.406;2023-02-28T17:46:02;8.47;;;4.37;;
19312;SDS011;9791;50.820;4.406;2023-02-28T17:48:30;10.65;;;5.18;;
19312;SDS011;9791;50.820;4.406;2023-02-28T17:50:56;14.13;;;6.57;;